Huvudsida
METAR-TAF:

METAR-TAF

Flygplatser :

Stockholm-Västerås flygplats

Västerås, Sverige

latitud: 59-35N, longitud: 016-38E, höjd: 6 m

Aktuellt väderrapport

Denna rapport gjordes för 36 minuter sedan, klockan 18:20 UTC
Vind 9 kt från nordväst
Temperatur 4°C
Fuktighet 75%
Tryck 993 hPa
Sikt 10 km eller mer

METAR: ESOW 231820Z AUTO 32009KT 9999 NCD 04/00 Q0993

Tid: 20:56 (18:56 UTC)

Väderprognos

Denna rapport gjordes för 7 timmar och 26 minuter sedan, klockan 11:30 UTC
Prognos gäller från 23 kl. 12 UTC till 23 kl. 14 UTC
Vind 12 kt från nord/nordväst
Sikt 10 km eller mer
Få moln på en höjd av 1500 ft
Brutna moln på en höjd av 2500 ft

TAF: ESOW 231130Z 2312/2314 34012KT 9999 FEW015 BKN025

Aktuella väderrapporter och prognoser från 4000 flygplatser (METAR- och TAF-rapporter).

De tillgängliga stationerna syns som gula och röda prickar på kartan.

För musen över prickarna för att se namnen på stationerna.

Klicka sedan för att få väderrapporter och prognoser.

För att ändra kartan: Klicka på de gröna knapparna med ett svart kors på för att zooma in; den gröna knappen med ett streck på för att zooma ut; eller på de gröna pilarna för angränsande kartor.


METAR-TAF: